Portada
METAR-TAF:

METAR-TAF

Aeroports :

Fayetteville, Tennessee, Estats Units d'Amèrica

latitud: 35-03-35N, longitud: 086-33-50W, altitud: 300 m

Observació

L'informe es va fer fa 23 minuts, a les 07:15 UTC
Vent calma
Temperatura 12°C
Humitat 58%
Pressió 1022 hPa
Visibilitat: 16.1 km
Cel clar

METAR: KFYM 300715Z AUTO 00000KT 10SM CLR 12/04 A3017 RMK A01

Hora: 02:38 (07:38 UTC)


TAF: manca

Observacions i pronòstics meteorològics de més de 4000 aeroports (METAR i TAF).

Les estacions disponibles són els punts grocs i vermells al mapa.

Posi el ratolí al punt desitjat per veure el nom de l'estació.

Feu clic per veure les observacions i els pronòstics meteorològics.

Per canviar el mapa: feu clic els botons verds amb una creu de color negre per apropar; al botó verd amb un guió per allunyar la imatge; o en les fletxes verdes per a mapes adjacents.


METAR-TAF: